sensor_id;sensor_type;location;lat;lon;timestamp;P1;durP1;ratioP1;P2;durP2;ratioP2
13345;SDS011;6742;48.036;15.780;2023-03-23T00:01:29;2.10;;;2.00;;
13345;SDS011;6742;48.036;15.780;2023-03-23T00:03:57;2.13;;;1.98;;
13345;SDS011;6742;48.036;15.780;2023-03-23T00:06:25;1.90;;;1.73;;
13345;SDS011;6742;48.036;15.780;2023-03-23T00:08:59;1.70;;;1.60;;
13345;SDS011;6742;48.036;15.780;2023-03-23T00:11:30;2.28;;;2.03;;
13345;SDS011;6742;48.036;15.780;2023-03-23T00:14:00;2.70;;;1.77;;
13345;SDS011;6742;48.036;15.780;2023-03-23T00:16:28;2.38;;;2.17;;
13345;SDS011;6742;48.036;15.780;2023-03-23T00:18:57;2.10;;;1.90;;
13345;SDS011;6742;48.036;15.780;2023-03-23T00:21:26;2.10;;;1.88;;
13345;SDS011;6742;48.036;15.780;2023-03-23T00:24:02;2.30;;;1.92;;
13345;SDS011;6742;48.036;15.780;2023-03-23T00:26:31;2.42;;;2.00;;
13345;SDS011;6742;48.036;15.780;2023-03-23T00:28:59;2.90;;;1.95;;
13345;SDS011;6742;48.036;15.780;2023-03-23T00:31:27;2.17;;;1.98;;
13345;SDS011;6742;48.036;15.780;2023-03-23T00:33:58;3.35;;;2.00;;
13345;SDS011;6742;48.036;15.780;2023-03-23T00:36:26;2.17;;;1.73;;
13345;SDS011;6742;48.036;15.780;2023-03-23T00:38:54;2.20;;;2.00;;
13345;SDS011;6742;48.036;15.780;2023-03-23T00:41:25;2.05;;;1.90;;
13345;SDS011;6742;48.036;15.780;2023-03-23T00:43:53;2.25;;;2.00;;
13345;SDS011;6742;48.036;15.780;2023-03-23T00:46:21;1.92;;;1.83;;
13345;SDS011;6742;48.036;15.780;2023-03-23T00:48:48;2.80;;;2.60;;
13345;SDS011;6742;48.036;15.780;2023-03-23T00:51:15;4.15;;;2.30;;
13345;SDS011;6742;48.036;15.780;2023-03-23T00:53:43;2.38;;;2.15;;
13345;SDS011;6742;48.036;15.780;2023-03-23T00:56:10;2.10;;;1.95;;
13345;SDS011;6742;48.036;15.780;2023-03-23T00:58:39;2.28;;;2.13;;
13345;SDS011;6742;48.036;15.780;2023-03-23T01:01:06;1.92;;;1.80;;
13345;SDS011;6742;48.036;15.780;2023-03-23T01:03:33;2.72;;;1.92;;
13345;SDS011;6742;48.036;15.780;2023-03-23T01:06:05;3.92;;;2.15;;
13345;SDS011;6742;48.036;15.780;2023-03-23T01:08:37;3.22;;;2.30;;
13345;SDS011;6742;48.036;15.780;2023-03-23T01:11:11;3.63;;;2.70;;
13345;SDS011;6742;48.036;15.780;2023-03-23T01:13:41;2.70;;;2.50;;
13345;SDS011;6742;48.036;15.780;2023-03-23T01:16:09;2.60;;;2.40;;
13345;SDS011;6742;48.036;15.780;2023-03-23T01:18:36;3.67;;;2.80;;
13345;SDS011;6742;48.036;15.780;2023-03-23T01:21:04;2.40;;;2.20;;
13345;SDS011;6742;48.036;15.780;2023-03-23T01:23:32;2.67;;;2.15;;
13345;SDS011;6742;48.036;15.780;2023-03-23T01:26:02;1.98;;;1.80;;
13345;SDS011;6742;48.036;15.780;2023-03-23T01:28:29;3.05;;;1.88;;
13345;SDS011;6742;48.036;15.780;2023-03-23T01:31:00;1.95;;;1.85;;
13345;SDS011;6742;48.036;15.780;2023-03-23T01:33:28;2.38;;;2.08;;
13345;SDS011;6742;48.036;15.780;2023-03-23T01:35:55;2.10;;;1.83;;
13345;SDS011;6742;48.036;15.780;2023-03-23T01:38:22;2.22;;;1.67;;
13345;SDS011;6742;48.036;15.780;2023-03-23T01:40:52;1.88;;;1.77;;
13345;SDS011;6742;48.036;15.780;2023-03-23T01:43:19;2.00;;;1.75;;
13345;SDS011;6742;48.036;15.780;2023-03-23T01:45:46;1.83;;;1.73;;
13345;SDS011;6742;48.036;15.780;2023-03-23T01:48:18;2.80;;;1.95;;
13345;SDS011;6742;48.036;15.780;2023-03-23T01:50:52;2.30;;;1.80;;
13345;SDS011;6742;48.036;15.780;2023-03-23T01:53:22;2.10;;;1.90;;
13345;SDS011;6742;48.036;15.780;2023-03-23T01:55:51;3.67;;;1.70;;
13345;SDS011;6742;48.036;15.780;2023-03-23T01:58:21;2.80;;;1.88;;
13345;SDS011;6742;48.036;15.780;2023-03-23T02:00:52;1.92;;;1.77;;
13345;SDS011;6742;48.036;15.780;2023-03-23T02:03:22;2.00;;;1.60;;
13345;SDS011;6742;48.036;15.780;2023-03-23T02:05:50;2.05;;;1.95;;
13345;SDS011;6742;48.036;15.780;2023-03-23T02:08:24;1.85;;;1.75;;
13345;SDS011;6742;48.036;15.780;2023-03-23T02:10:54;2.05;;;1.90;;
13345;SDS011;6742;48.036;15.780;2023-03-23T02:13:21;1.90;;;1.70;;
13345;SDS011;6742;48.036;15.780;2023-03-23T02:15:49;4.75;;;1.98;;
13345;SDS011;6742;48.036;15.780;2023-03-23T02:18:28;2.42;;;1.90;;
13345;SDS011;6742;48.036;15.780;2023-03-23T02:24:17;1.70;;;1.60;;
13345;SDS011;6742;48.036;15.780;2023-03-23T02:27:00;2.25;;;1.90;;
13345;SDS011;6742;48.036;15.780;2023-03-23T02:32:22;1.70;;;1.60;;
13345;SDS011;6742;48.036;15.780;2023-03-23T02:35:16;1.80;;;1.70;;
13345;SDS011;6742;48.036;15.780;2023-03-23T02:37:46;3.00;;;1.90;;
13345;SDS011;6742;48.036;15.780;2023-03-23T02:40:16;2.60;;;2.40;;
13345;SDS011;6742;48.036;15.780;2023-03-23T02:42:47;3.20;;;3.00;;
13345;SDS011;6742;48.036;15.780;2023-03-23T02:45:18;2.70;;;2.40;;
13345;SDS011;6742;48.036;15.780;2023-03-23T02:47:48;2.30;;;2.10;;
13345;SDS011;6742;48.036;15.780;2023-03-23T02:50:20;2.63;;;2.42;;
13345;SDS011;6742;48.036;15.780;2023-03-23T02:52:49;3.10;;;2.90;;
13345;SDS011;6742;48.036;15.780;2023-03-23T02:55:18;3.10;;;2.90;;
13345;SDS011;6742;48.036;15.780;2023-03-23T02:57:49;4.03;;;3.30;;
13345;SDS011;6742;48.036;15.780;2023-03-23T03:00:17;3.08;;;2.88;;
13345;SDS011;6742;48.036;15.780;2023-03-23T03:02:46;2.50;;;2.30;;
13345;SDS011;6742;48.036;15.780;2023-03-23T03:05:20;2.60;;;2.40;;
13345;SDS011;6742;48.036;15.780;2023-03-23T03:08:00;2.40;;;2.20;;
13345;SDS011;6742;48.036;15.780;2023-03-23T03:10:40;2.20;;;1.92;;
13345;SDS011;6742;48.036;15.780;2023-03-23T03:13:13;2.17;;;1.90;;
13345;SDS011;6742;48.036;15.780;2023-03-23T03:15:47;2.42;;;2.22;;
13345;SDS011;6742;48.036;15.780;2023-03-23T03:18:22;2.65;;;2.35;;
13345;SDS011;6742;48.036;15.780;2023-03-23T03:20:55;2.70;;;2.50;;
13345;SDS011;6742;48.036;15.780;2023-03-23T03:23:26;2.60;;;2.40;;
13345;SDS011;6742;48.036;15.780;2023-03-23T03:25:54;2.60;;;2.40;;
13345;SDS011;6742;48.036;15.780;2023-03-23T03:28:23;2.90;;;2.40;;
13345;SDS011;6742;48.036;15.780;2023-03-23T03:30:54;2.55;;;2.35;;
13345;SDS011;6742;48.036;15.780;2023-03-23T03:33:25;6.97;;;6.47;;
13345;SDS011;6742;48.036;15.780;2023-03-23T03:35:57;6.70;;;4.10;;
13345;SDS011;6742;48.036;15.780;2023-03-23T03:38:28;3.00;;;2.80;;
13345;SDS011;6742;48.036;15.780;2023-03-23T03:40:55;3.50;;;3.20;;
13345;SDS011;6742;48.036;15.780;2023-03-23T03:43:23;3.65;;;3.35;;
13345;SDS011;6742;48.036;15.780;2023-03-23T03:45:50;3.63;;;3.35;;
13345;SDS011;6742;48.036;15.780;2023-03-23T03:48:17;3.40;;;2.80;;
13345;SDS011;6742;48.036;15.780;2023-03-23T03:50:44;2.65;;;2.45;;
13345;SDS011;6742;48.036;15.780;2023-03-23T03:53:12;3.33;;;2.10;;
13345;SDS011;6742;48.036;15.780;2023-03-23T03:55:40;2.15;;;2.00;;
13345;SDS011;6742;48.036;15.780;2023-03-23T03:58:13;2.05;;;1.90;;
13345;SDS011;6742;48.036;15.780;2023-03-23T04:00:40;1.70;;;1.60;;
13345;SDS011;6742;48.036;15.780;2023-03-23T04:03:07;2.65;;;1.77;;
13345;SDS011;6742;48.036;15.780;2023-03-23T04:05:34;2.03;;;1.83;;
13345;SDS011;6742;48.036;15.780;2023-03-23T04:08:01;6.85;;;2.00;;
13345;SDS011;6742;48.036;15.780;2023-03-23T04:10:31;4.10;;;1.88;;
13345;SDS011;6742;48.036;15.780;2023-03-23T04:12:58;6.18;;;1.90;;
13345;SDS011;6742;48.036;15.780;2023-03-23T04:15:25;3.90;;;1.65;;
13345;SDS011;6742;48.036;15.780;2023-03-23T04:17:52;6.60;;;1.90;;
13345;SDS011;6742;48.036;15.780;2023-03-23T04:20:21;3.17;;;1.75;;
13345;SDS011;6742;48.036;15.780;2023-03-23T04:22:50;2.78;;;1.80;;
13345;SDS011;6742;48.036;15.780;2023-03-23T04:25:20;1.83;;;1.45;;
13345;SDS011;6742;48.036;15.780;2023-03-23T04:27:49;2.40;;;1.73;;
13345;SDS011;6742;48.036;15.780;2023-03-23T04:30:21;2.23;;;1.80;;
13345;SDS011;6742;48.036;15.780;2023-03-23T04:32:50;1.83;;;1.73;;
13345;SDS011;6742;48.036;15.780;2023-03-23T04:35:20;2.00;;;1.90;;
13345;SDS011;6742;48.036;15.780;2023-03-23T04:37:49;2.83;;;2.13;;
13345;SDS011;6742;48.036;15.780;2023-03-23T04:40:16;2.30;;;1.80;;
13345;SDS011;6742;48.036;15.780;2023-03-23T04:42:44;2.92;;;1.50;;
13345;SDS011;6742;48.036;15.780;2023-03-23T04:45:14;4.47;;;4.07;;
13345;SDS011;6742;48.036;15.780;2023-03-23T04:47:47;3.80;;;3.60;;
13345;SDS011;6742;48.036;15.780;2023-03-23T04:50:18;3.90;;;3.60;;
13345;SDS011;6742;48.036;15.780;2023-03-23T04:52:46;3.40;;;3.10;;
13345;SDS011;6742;48.036;15.780;2023-03-23T04:55:13;3.60;;;3.30;;
13345;SDS011;6742;48.036;15.780;2023-03-23T04:57:40;3.88;;;3.45;;
13345;SDS011;6742;48.036;15.780;2023-03-23T05:00:08;5.07;;;4.68;;
13345;SDS011;6742;48.036;15.780;2023-03-23T05:02:43;4.50;;;3.97;;
13345;SDS011;6742;48.036;15.780;2023-03-23T05:05:12;3.58;;;2.90;;
13345;SDS011;6742;48.036;15.780;2023-03-23T05:07:40;4.28;;;2.50;;
13345;SDS011;6742;48.036;15.780;2023-03-23T05:10:10;2.88;;;2.10;;
13345;SDS011;6742;48.036;15.780;2023-03-23T05:12:39;2.00;;;1.80;;
13345;SDS011;6742;48.036;15.780;2023-03-23T05:15:09;2.00;;;1.87;;
13345;SDS011;6742;48.036;15.780;2023-03-23T05:17:38;3.10;;;2.90;;
13345;SDS011;6742;48.036;15.780;2023-03-23T05:20:11;3.80;;;3.08;;
13345;SDS011;6742;48.036;15.780;2023-03-23T05:22:39;5.10;;;4.70;;
13345;SDS011;6742;48.036;15.780;2023-03-23T05:25:07;3.45;;;3.22;;
13345;SDS011;6742;48.036;15.780;2023-03-23T05:27:35;3.72;;;3.03;;
13345;SDS011;6742;48.036;15.780;2023-03-23T05:30:03;4.07;;;2.88;;
13345;SDS011;6742;48.036;15.780;2023-03-23T05:32:31;2.33;;;2.13;;
13345;SDS011;6742;48.036;15.780;2023-03-23T05:34:58;2.47;;;2.00;;
13345;SDS011;6742;48.036;15.780;2023-03-23T05:37:29;3.15;;;2.47;;
13345;SDS011;6742;48.036;15.780;2023-03-23T05:39:57;2.60;;;2.40;;
13345;SDS011;6742;48.036;15.780;2023-03-23T05:42:30;2.40;;;2.20;;
13345;SDS011;6742;48.036;15.780;2023-03-23T05:44:58;2.70;;;2.50;;
13345;SDS011;6742;48.036;15.780;2023-03-23T05:47:25;3.08;;;1.90;;
13345;SDS011;6742;48.036;15.780;2023-03-23T05:49:53;3.20;;;2.00;;
13345;SDS011;6742;48.036;15.780;2023-03-23T05:52:20;3.15;;;1.83;;
13345;SDS011;6742;48.036;15.780;2023-03-23T05:54:50;3.50;;;2.13;;
13345;SDS011;6742;48.036;15.780;2023-03-23T05:57:17;9.00;;;2.10;;
13345;SDS011;6742;48.036;15.780;2023-03-23T05:59:46;7.28;;;2.22;;
13345;SDS011;6742;48.036;15.780;2023-03-23T06:02:14;3.67;;;1.77;;
13345;SDS011;6742;48.036;15.780;2023-03-23T06:04:41;2.95;;;1.80;;
13345;SDS011;6742;48.036;15.780;2023-03-23T06:07:08;4.35;;;1.90;;
13345;SDS011;6742;48.036;15.780;2023-03-23T06:09:38;2.67;;;1.80;;
13345;SDS011;6742;48.036;15.780;2023-03-23T06:12:08;6.05;;;2.20;;
13345;SDS011;6742;48.036;15.780;2023-03-23T06:14:36;2.15;;;1.50;;
13345;SDS011;6742;48.036;15.780;2023-03-23T06:17:03;2.38;;;1.85;;
13345;SDS011;6742;48.036;15.780;2023-03-23T06:19:31;2.40;;;2.08;;
13345;SDS011;6742;48.036;15.780;2023-03-23T06:21:59;5.70;;;2.40;;
13345;SDS011;6742;48.036;15.780;2023-03-23T06:24:26;10.25;;;3.10;;
13345;SDS011;6742;48.036;15.780;2023-03-23T06:26:57;10.07;;;2.85;;
13345;SDS011;6742;48.036;15.780;2023-03-23T06:29:29;23.20;;;7.40;;
13345;SDS011;6742;48.036;15.780;2023-03-23T06:31:58;12.98;;;6.85;;
13345;SDS011;6742;48.036;15.780;2023-03-23T06:34:28;14.77;;;7.93;;
13345;SDS011;6742;48.036;15.780;2023-03-23T06:36:55;10.52;;;3.83;;
13345;SDS011;6742;48.036;15.780;2023-03-23T06:39:22;11.48;;;4.15;;
13345;SDS011;6742;48.036;15.780;2023-03-23T06:41:50;10.30;;;3.70;;
13345;SDS011;6742;48.036;15.780;2023-03-23T06:44:17;14.57;;;4.28;;
13345;SDS011;6742;48.036;15.780;2023-03-23T06:46:45;7.97;;;3.75;;
13345;SDS011;6742;48.036;15.780;2023-03-23T06:49:13;7.10;;;3.63;;
13345;SDS011;6742;48.036;15.780;2023-03-23T06:51:40;9.07;;;3.20;;
13345;SDS011;6742;48.036;15.780;2023-03-23T06:54:07;10.30;;;3.17;;
13345;SDS011;6742;48.036;15.780;2023-03-23T06:56:34;17.75;;;3.40;;
13345;SDS011;6742;48.036;15.780;2023-03-23T06:59:01;18.17;;;4.35;;
13345;SDS011;6742;48.036;15.780;2023-03-23T07:01:29;14.60;;;4.97;;
13345;SDS011;6742;48.036;15.780;2023-03-23T07:03:57;13.02;;;4.20;;
13345;SDS011;6742;48.036;15.780;2023-03-23T07:06:24;15.50;;;3.90;;
13345;SDS011;6742;48.036;15.780;2023-03-23T07:08:52;11.93;;;3.60;;
13345;SDS011;6742;48.036;15.780;2023-03-23T07:11:19;11.63;;;3.20;;
13345;SDS011;6742;48.036;15.780;2023-03-23T07:13:46;7.72;;;3.05;;
13345;SDS011;6742;48.036;15.780;2023-03-23T07:16:15;6.57;;;3.40;;
13345;SDS011;6742;48.036;15.780;2023-03-23T07:18:42;7.72;;;2.72;;
13345;SDS011;6742;48.036;15.780;2023-03-23T07:21:11;7.18;;;2.38;;
13345;SDS011;6742;48.036;15.780;2023-03-23T07:23:38;8.80;;;2.60;;
13345;SDS011;6742;48.036;15.780;2023-03-23T07:26:05;8.88;;;2.63;;
13345;SDS011;6742;48.036;15.780;2023-03-23T07:28:32;6.55;;;3.40;;
13345;SDS011;6742;48.036;15.780;2023-03-23T07:30:59;6.75;;;2.28;;
13345;SDS011;6742;48.036;15.780;2023-03-23T07:33:26;3.88;;;3.00;;
13345;SDS011;6742;48.036;15.780;2023-03-23T07:35:53;12.18;;;6.63;;
13345;SDS011;6742;48.036;15.780;2023-03-23T07:38:22;10.82;;;4.97;;
13345;SDS011;6742;48.036;15.780;2023-03-23T07:40:50;11.70;;;5.75;;
13345;SDS011;6742;48.036;15.780;2023-03-23T07:43:17;7.78;;;4.95;;
13345;SDS011;6742;48.036;15.780;2023-03-23T07:45:44;10.77;;;4.22;;
13345;SDS011;6742;48.036;15.780;2023-03-23T07:48:11;6.88;;;3.10;;
13345;SDS011;6742;48.036;15.780;2023-03-23T07:50:38;11.98;;;3.83;;
13345;SDS011;6742;48.036;15.780;2023-03-23T07:53:05;6.07;;;3.05;;
13345;SDS011;6742;48.036;15.780;2023-03-23T07:55:34;4.88;;;2.50;;
13345;SDS011;6742;48.036;15.780;2023-03-23T07:58:02;2.15;;;1.85;;
13345;SDS011;6742;48.036;15.780;2023-03-23T08:00:33;3.03;;;2.00;;
13345;SDS011;6742;48.036;15.780;2023-03-23T08:03:00;4.95;;;1.77;;
13345;SDS011;6742;48.036;15.780;2023-03-23T08:05:27;7.70;;;2.10;;
13345;SDS011;6742;48.036;15.780;2023-03-23T08:07:55;4.63;;;1.92;;
13345;SDS011;6742;48.036;15.780;2023-03-23T08:10:22;7.07;;;2.50;;
13345;SDS011;6742;48.036;15.780;2023-03-23T08:12:52;3.30;;;2.25;;
13345;SDS011;6742;48.036;15.780;2023-03-23T08:15:20;3.75;;;2.20;;
13345;SDS011;6742;48.036;15.780;2023-03-23T08:17:47;4.88;;;2.53;;
13345;SDS011;6742;48.036;15.780;2023-03-23T08:20:15;4.80;;;2.85;;
13345;SDS011;6742;48.036;15.780;2023-03-23T08:22:44;6.38;;;2.50;;
13345;SDS011;6742;48.036;15.780;2023-03-23T08:25:15;2.72;;;2.25;;
13345;SDS011;6742;48.036;15.780;2023-03-23T08:27:43;5.00;;;2.38;;
13345;SDS011;6742;48.036;15.780;2023-03-23T08:30:12;8.02;;;2.30;;
13345;SDS011;6742;48.036;15.780;2023-03-23T08:32:43;3.40;;;2.00;;
13345;SDS011;6742;48.036;15.780;2023-03-23T08:35:11;6.40;;;1.90;;
13345;SDS011;6742;48.036;15.780;2023-03-23T08:37:40;3.00;;;1.70;;
13345;SDS011;6742;48.036;15.780;2023-03-23T08:40:09;2.80;;;1.92;;
13345;SDS011;6742;48.036;15.780;2023-03-23T08:42:40;1.92;;;1.77;;
13345;SDS011;6742;48.036;15.780;2023-03-23T08:45:09;1.70;;;1.60;;
13345;SDS011;6742;48.036;15.780;2023-03-23T08:47:41;4.72;;;1.80;;
13345;SDS011;6742;48.036;15.780;2023-03-23T08:50:10;3.67;;;2.00;;
13345;SDS011;6742;48.036;15.780;2023-03-23T08:52:38;4.43;;;2.08;;
13345;SDS011;6742;48.036;15.780;2023-03-23T08:55:09;3.05;;;2.30;;
13345;SDS011;6742;48.036;15.780;2023-03-23T08:57:36;3.22;;;2.28;;
13345;SDS011;6742;48.036;15.780;2023-03-23T09:00:06;3.25;;;2.20;;
13345;SDS011;6742;48.036;15.780;2023-03-23T09:02:41;2.10;;;1.90;;
13345;SDS011;6742;48.036;15.780;2023-03-23T09:05:09;2.17;;;1.75;;
13345;SDS011;6742;48.036;15.780;2023-03-23T09:07:36;2.00;;;1.80;;
13345;SDS011;6742;48.036;15.780;2023-03-23T09:10:04;1.80;;;1.70;;
13345;SDS011;6742;48.036;15.780;2023-03-23T09:12:32;1.98;;;1.63;;
13345;SDS011;6742;48.036;15.780;2023-03-23T09:15:00;3.35;;;1.48;;
13345;SDS011;6742;48.036;15.780;2023-03-23T09:17:30;1.80;;;1.65;;
13345;SDS011;6742;48.036;15.780;2023-03-23T09:19:58;3.58;;;2.55;;
13345;SDS011;6742;48.036;15.780;2023-03-23T09:22:25;3.40;;;3.00;;
13345;SDS011;6742;48.036;15.780;2023-03-23T09:24:52;3.80;;;2.75;;
13345;SDS011;6742;48.036;15.780;2023-03-23T09:27:19;4.93;;;2.47;;
13345;SDS011;6742;48.036;15.780;2023-03-23T09:29:46;4.25;;;2.35;;
13345;SDS011;6742;48.036;15.780;2023-03-23T09:32:14;4.53;;;2.17;;
13345;SDS011;6742;48.036;15.780;2023-03-23T09:34:41;3.78;;;1.80;;
13345;SDS011;6742;48.036;15.780;2023-03-23T09:37:09;2.20;;;1.88;;
13345;SDS011;6742;48.036;15.780;2023-03-23T09:39:38;2.38;;;1.95;;
13345;SDS011;6742;48.036;15.780;2023-03-23T09:42:12;1.77;;;1.60;;
13345;SDS011;6742;48.036;15.780;2023-03-23T09:45:02;2.00;;;1.80;;
13345;SDS011;6742;48.036;15.780;2023-03-23T09:47:40;2.08;;;1.77;;
13345;SDS011;6742;48.036;15.780;2023-03-23T09:50:14;3.45;;;1.60;;
13345;SDS011;6742;48.036;15.780;2023-03-23T09:52:45;2.28;;;1.80;;
13345;SDS011;6742;48.036;15.780;2023-03-23T09:55:17;3.13;;;1.83;;
13345;SDS011;6742;48.036;15.780;2023-03-23T09:57:47;4.47;;;1.95;;
13345;SDS011;6742;48.036;15.780;2023-03-23T10:00:20;5.05;;;1.73;;
13345;SDS011;6742;48.036;15.780;2023-03-23T10:02:52;2.72;;;1.80;;
13345;SDS011;6742;48.036;15.780;2023-03-23T10:05:31;2.75;;;1.58;;
13345;SDS011;6742;48.036;15.780;2023-03-23T10:08:02;1.60;;;1.50;;
13345;SDS011;6742;48.036;15.780;2023-03-23T10:10:36;4.65;;;1.90;;
13345;SDS011;6742;48.036;15.780;2023-03-23T10:13:14;1.55;;;1.42;;
13345;SDS011;6742;48.036;15.780;2023-03-23T10:15:48;2.30;;;1.58;;
13345;SDS011;6742;48.036;15.780;2023-03-23T10:18:17;1.75;;;1.65;;
13345;SDS011;6742;48.036;15.780;2023-03-23T10:20:53;1.67;;;1.58;;
13345;SDS011;6742;48.036;15.780;2023-03-23T10:23:39;1.70;;;1.50;;
13345;SDS011;6742;48.036;15.780;2023-03-23T10:26:12;2.45;;;1.73;;
13345;SDS011;6742;48.036;15.780;2023-03-23T10:28:48;2.40;;;1.60;;
13345;SDS011;6742;48.036;15.780;2023-03-23T10:31:19;5.43;;;2.10;;
13345;SDS011;6742;48.036;15.780;2023-03-23T10:33:50;1.70;;;1.60;;
13345;SDS011;6742;48.036;15.780;2023-03-23T10:36:21;1.75;;;1.52;;
13345;SDS011;6742;48.036;15.780;2023-03-23T10:38:56;1.67;;;1.58;;
13345;SDS011;6742;48.036;15.780;2023-03-23T10:41:28;2.08;;;1.80;;
13345;SDS011;6742;48.036;15.780;2023-03-23T10:43:56;3.13;;;1.67;;
13345;SDS011;6742;48.036;15.780;2023-03-23T10:46:26;1.83;;;1.60;;
13345;SDS011;6742;48.036;15.780;2023-03-23T10:49:01;1.75;;;1.55;;
13345;SDS011;6742;48.036;15.780;2023-03-23T10:51:32;3.13;;;1.60;;
13345;SDS011;6742;48.036;15.780;2023-03-23T10:54:03;2.88;;;1.70;;
13345;SDS011;6742;48.036;15.780;2023-03-23T10:56:35;2.10;;;1.45;;
13345;SDS011;6742;48.036;15.780;2023-03-23T10:59:11;2.17;;;1.30;;
13345;SDS011;6742;48.036;15.780;2023-03-23T11:01:41;3.03;;;1.50;;
13345;SDS011;6742;48.036;15.780;2023-03-23T11:04:11;1.73;;;1.50;;
13345;SDS011;6742;48.036;15.780;2023-03-23T11:06:42;1.52;;;1.30;;
13345;SDS011;6742;48.036;15.780;2023-03-23T11:09:13;2.42;;;1.35;;
13345;SDS011;6742;48.036;15.780;2023-03-23T11:11:43;1.40;;;1.30;;
13345;SDS011;6742;48.036;15.780;2023-03-23T11:14:15;3.60;;;1.30;;
13345;SDS011;6742;48.036;15.780;2023-03-23T11:16:45;3.22;;;1.40;;
13345;SDS011;6742;48.036;15.780;2023-03-23T11:19:21;1.55;;;1.45;;
13345;SDS011;6742;48.036;15.780;2023-03-23T11:21:50;2.03;;;1.60;;
13345;SDS011;6742;48.036;15.780;2023-03-23T11:24:22;1.60;;;1.50;;
13345;SDS011;6742;48.036;15.780;2023-03-23T11:26:51;1.48;;;1.30;;
13345;SDS011;6742;48.036;15.780;2023-03-23T11:29:19;3.00;;;1.55;;
13345;SDS011;6742;48.036;15.780;2023-03-23T11:31:49;1.95;;;1.60;;
13345;SDS011;6742;48.036;15.780;2023-03-23T11:34:19;1.98;;;1.40;;
13345;SDS011;6742;48.036;15.780;2023-03-23T11:36:49;4.03;;;1.40;;
13345;SDS011;6742;48.036;15.780;2023-03-23T11:39:19;1.85;;;1.40;;
13345;SDS011;6742;48.036;15.780;2023-03-23T11:41:52;3.20;;;1.55;;
13345;SDS011;6742;48.036;15.780;2023-03-23T11:44:20;1.40;;;1.30;;
13345;SDS011;6742;48.036;15.780;2023-03-23T11:46:53;1.90;;;1.50;;
13345;SDS011;6742;48.036;15.780;2023-03-23T11:49:30;1.45;;;1.33;;
13345;SDS011;6742;48.036;15.780;2023-03-23T11:52:09;4.13;;;1.40;;
13345;SDS011;6742;48.036;15.780;2023-03-23T11:54:43;1.90;;;1.50;;
13345;SDS011;6742;48.036;15.780;2023-03-23T11:57:14;1.90;;;1.58;;
13345;SDS011;6742;48.036;15.780;2023-03-23T11:59:41;1.83;;;1.60;;
13345;SDS011;6742;48.036;15.780;2023-03-23T12:02:25;1.75;;;1.45;;
13345;SDS011;6742;48.036;15.780;2023-03-23T12:08:02;4.28;;;2.40;;
13345;SDS011;6742;48.036;15.780;2023-03-23T12:10:41;2.90;;;2.25;;
13345;SDS011;6742;48.036;15.780;2023-03-23T12:13:21;3.25;;;1.70;;
13345;SDS011;6742;48.036;15.780;2023-03-23T12:16:03;5.07;;;2.17;;
13345;SDS011;6742;48.036;15.780;2023-03-23T12:18:43;2.72;;;1.80;;
13345;SDS011;6742;48.036;15.780;2023-03-23T12:21:15;1.42;;;1.23;;
13345;SDS011;6742;48.036;15.780;2023-03-23T12:24:00;3.92;;;2.30;;
13345;SDS011;6742;48.036;15.780;2023-03-23T12:26:37;1.80;;;1.58;;
13345;SDS011;6742;48.036;15.780;2023-03-23T12:29:13;2.30;;;1.75;;
13345;SDS011;6742;48.036;15.780;2023-03-23T12:31:56;3.03;;;1.15;;
13345;SDS011;6742;48.036;15.780;2023-03-23T12:34:36;2.35;;;1.80;;
13345;SDS011;6742;48.036;15.780;2023-03-23T12:37:21;1.73;;;1.40;;
13345;SDS011;6742;48.036;15.780;2023-03-23T12:40:03;2.40;;;1.50;;
13345;SDS011;6742;48.036;15.780;2023-03-23T12:42:49;3.33;;;1.45;;
13345;SDS011;6742;48.036;15.780;2023-03-23T12:45:24;3.17;;;1.90;;
13345;SDS011;6742;48.036;15.780;2023-03-23T12:48:10;1.25;;;1.10;;
13345;SDS011;6742;48.036;15.780;2023-03-23T12:50:44;1.58;;;1.42;;
13345;SDS011;6742;48.036;15.780;2023-03-23T12:53:27;2.78;;;1.75;;
13345;SDS011;6742;48.036;15.780;2023-03-23T12:56:06;2.92;;;2.00;;
13345;SDS011;6742;48.036;15.780;2023-03-23T12:58:40;4.90;;;1.50;;
13345;SDS011;6742;48.036;15.780;2023-03-23T13:01:11;1.42;;;1.30;;
13345;SDS011;6742;48.036;15.780;2023-03-23T13:03:44;2.08;;;1.40;;
13345;SDS011;6742;48.036;15.780;2023-03-23T13:06:18;1.98;;;1.30;;
13345;SDS011;6742;48.036;15.780;2023-03-23T13:08:49;2.33;;;1.73;;
13345;SDS011;6742;48.036;15.780;2023-03-23T13:11:20;4.05;;;2.70;;
13345;SDS011;6742;48.036;15.780;2023-03-23T13:13:56;1.52;;;1.30;;
13345;SDS011;6742;48.036;15.780;2023-03-23T13:16:31;2.42;;;2.10;;
13345;SDS011;6742;48.036;15.780;2023-03-23T13:19:04;2.15;;;1.80;;
13345;SDS011;6742;48.036;15.780;2023-03-23T13:21:38;1.92;;;1.30;;
13345;SDS011;6742;48.036;15.780;2023-03-23T13:24:10;1.40;;;0.98;;
13345;SDS011;6742;48.036;15.780;2023-03-23T13:26:41;2.90;;;1.70;;
13345;SDS011;6742;48.036;15.780;2023-03-23T13:29:12;1.90;;;1.10;;
13345;SDS011;6742;48.036;15.780;2023-03-23T13:31:43;1.20;;;1.00;;
13345;SDS011;6742;48.036;15.780;2023-03-23T13:34:14;2.83;;;1.75;;
13345;SDS011;6742;48.036;15.780;2023-03-23T13:36:44;1.42;;;1.33;;
13345;SDS011;6742;48.036;15.780;2023-03-23T13:39:20;1.63;;;1.20;;
13345;SDS011;6742;48.036;15.780;2023-03-23T13:41:58;4.18;;;2.50;;
13345;SDS011;6742;48.036;15.780;2023-03-23T13:44:39;8.60;;;4.75;;
13345;SDS011;6742;48.036;15.780;2023-03-23T13:47:16;9.20;;;4.35;;
13345;SDS011;6742;48.036;15.780;2023-03-23T13:49:49;3.35;;;2.22;;
13345;SDS011;6742;48.036;15.780;2023-03-23T13:52:18;1.50;;;1.40;;
13345;SDS011;6742;48.036;15.780;2023-03-23T13:54:50;1.50;;;1.20;;
13345;SDS011;6742;48.036;15.780;2023-03-23T13:57:19;1.20;;;1.10;;
13345;SDS011;6742;48.036;15.780;2023-03-23T13:59:57;2.90;;;1.90;;
13345;SDS011;6742;48.036;15.780;2023-03-23T14:02:31;1.42;;;1.30;;
13345;SDS011;6742;48.036;15.780;2023-03-23T14:08:02;1.45;;;1.35;;
13345;SDS011;6742;48.036;15.780;2023-03-23T14:10:38;1.30;;;1.20;;
13345;SDS011;6742;48.036;15.780;2023-03-23T14:13:10;2.65;;;1.50;;
13345;SDS011;6742;48.036;15.780;2023-03-23T14:15:53;2.50;;;1.30;;
13345;SDS011;6742;48.036;15.780;2023-03-23T14:18:26;1.52;;;1.30;;
13345;SDS011;6742;48.036;15.780;2023-03-23T14:20:57;1.45;;;1.35;;
13345;SDS011;6742;48.036;15.780;2023-03-23T14:23:25;1.55;;;1.30;;
13345;SDS011;6742;48.036;15.780;2023-03-23T14:25:55;2.35;;;1.60;;
13345;SDS011;6742;48.036;15.780;2023-03-23T14:28:30;2.35;;;1.70;;
13345;SDS011;6742;48.036;15.780;2023-03-23T14:30:59;3.50;;;1.40;;
13345;SDS011;6742;48.036;15.780;2023-03-23T14:33:26;1.55;;;1.40;;
13345;SDS011;6742;48.036;15.780;2023-03-23T14:35:53;2.45;;;1.40;;
13345;SDS011;6742;48.036;15.780;2023-03-23T14:41:02;2.80;;;1.90;;
13345;SDS011;6742;48.036;15.780;2023-03-23T14:43:30;2.05;;;1.80;;
13345;SDS011;6742;48.036;15.780;2023-03-23T14:46:04;1.75;;;1.65;;
13345;SDS011;6742;48.036;15.780;2023-03-23T14:48:33;2.40;;;1.38;;
13345;SDS011;6742;48.036;15.780;2023-03-23T14:51:02;3.08;;;1.80;;
13345;SDS011;6742;48.036;15.780;2023-03-23T14:53:33;2.55;;;1.90;;
13345;SDS011;6742;48.036;15.780;2023-03-23T14:56:03;2.50;;;1.75;;
13345;SDS011;6742;48.036;15.780;2023-03-23T14:58:38;2.22;;;1.80;;
13345;SDS011;6742;48.036;15.780;2023-03-23T15:01:11;5.18;;;2.20;;
13345;SDS011;6742;48.036;15.780;2023-03-23T15:03:41;1.95;;;1.75;;
13345;SDS011;6742;48.036;15.780;2023-03-23T15:06:11;2.63;;;1.70;;
13345;SDS011;6742;48.036;15.780;2023-03-23T15:08:41;1.80;;;1.50;;
13345;SDS011;6742;48.036;15.780;2023-03-23T15:11:11;2.72;;;1.77;;
13345;SDS011;6742;48.036;15.780;2023-03-23T15:13:47;1.75;;;1.60;;
13345;SDS011;6742;48.036;15.780;2023-03-23T15:16:22;1.98;;;1.70;;
13345;SDS011;6742;48.036;15.780;2023-03-23T15:18:53;1.67;;;1.48;;
13345;SDS011;6742;48.036;15.780;2023-03-23T15:21:26;2.70;;;1.80;;
13345;SDS011;6742;48.036;15.780;2023-03-23T15:23:54;3.97;;;1.67;;